sensor_id;sensor_type;location;lat;lon;timestamp;temperature;humidity
19496;DHT22;9888;48.606;9.630;2022-08-04T00:12:01;15.60;99.90
19496;DHT22;9888;48.606;9.630;2022-08-04T00:24:42;15.50;99.90
19496;DHT22;9888;48.606;9.630;2022-08-04T00:33:56;15.40;99.90
19496;DHT22;9888;48.606;9.630;2022-08-04T00:40:08;15.30;99.90
19496;DHT22;9888;48.606;9.630;2022-08-04T01:03:08;15.10;99.90
19496;DHT22;9888;48.606;9.630;2022-08-04T01:09:25;15.00;99.90
19496;DHT22;9888;48.606;9.630;2022-08-04T01:32:04;15.00;99.90
19496;DHT22;9888;48.606;9.630;2022-08-04T01:34:50;15.00;99.90
19496;DHT22;9888;48.606;9.630;2022-08-04T01:44:44;14.90;99.90
19496;DHT22;9888;48.606;9.630;2022-08-04T02:04:27;14.70;99.90
19496;DHT22;9888;48.606;9.630;2022-08-04T02:17:01;14.70;99.90
19496;DHT22;9888;48.606;9.630;2022-08-04T02:23:02;14.60;99.90
19496;DHT22;9888;48.606;9.630;2022-08-04T02:26:00;14.60;99.90
19496;DHT22;9888;48.606;9.630;2022-08-04T02:34:44;14.50;99.90
19496;DHT22;9888;48.606;9.630;2022-08-04T02:37:17;14.50;99.90
19496;DHT22;9888;48.606;9.630;2022-08-04T02:39:51;14.40;99.90
19496;DHT22;9888;48.606;9.630;2022-08-04T02:45:51;14.40;99.90
19496;DHT22;9888;48.606;9.630;2022-08-04T02:48:26;14.40;99.90
19496;DHT22;9888;48.606;9.630;2022-08-04T02:54:43;14.30;99.90
19496;DHT22;9888;48.606;9.630;2022-08-04T05:42:08;18.00;99.90
19496;DHT22;9888;48.606;9.630;2022-08-04T05:44:56;18.10;99.90
19496;DHT22;9888;48.606;9.630;2022-08-04T05:47:48;18.30;99.90
19496;DHT22;9888;48.606;9.630;2022-08-04T05:50:55;18.40;99.90
19496;DHT22;9888;48.606;9.630;2022-08-04T05:53:24;18.60;99.90
19496;DHT22;9888;48.606;9.630;2022-08-04T05:56:04;18.80;99.90
19496;DHT22;9888;48.606;9.630;2022-08-04T05:58:41;18.90;99.90
19496;DHT22;9888;48.606;9.630;2022-08-04T06:01:14;19.10;99.90
19496;DHT22;9888;48.606;9.630;2022-08-04T06:04:01;19.30;99.90
19496;DHT22;9888;48.606;9.630;2022-08-04T06:06:40;19.40;99.90
19496;DHT22;9888;48.606;9.630;2022-08-04T06:09:19;19.60;99.90
19496;DHT22;9888;48.606;9.630;2022-08-04T06:11:52;19.70;99.90
19496;DHT22;9888;48.606;9.630;2022-08-04T06:41:47;21.40;99.90
19496;DHT22;9888;48.606;9.630;2022-08-04T06:54:35;22.40;99.90
19496;DHT22;9888;48.606;9.630;2022-08-04T06:57:04;22.70;99.90
19496;DHT22;9888;48.606;9.630;2022-08-04T08:10:44;29.20;99.90
19496;DHT22;9888;48.606;9.630;2022-08-04T08:13:18;29.40;99.90
19496;DHT22;9888;48.606;9.630;2022-08-04T08:19:19;29.70;99.90
19496;DHT22;9888;48.606;9.630;2022-08-04T08:25:25;30.10;99.90
19496;DHT22;9888;48.606;9.630;2022-08-04T08:27:58;30.30;99.90
19496;DHT22;9888;48.606;9.630;2022-08-04T08:30:27;30.30;99.90
19496;DHT22;9888;48.606;9.630;2022-08-04T08:32:58;30.30;99.90
19496;DHT22;9888;48.606;9.630;2022-08-04T08:49:00;31.10;99.90
19496;DHT22;9888;48.606;9.630;2022-08-04T08:51:52;31.30;99.90
19496;DHT22;9888;48.606;9.630;2022-08-04T09:00:55;31.60;99.90
19496;DHT22;9888;48.606;9.630;2022-08-04T09:04:23;31.80;99.90
19496;DHT22;9888;48.606;9.630;2022-08-04T09:10:30;32.20;99.90
19496;DHT22;9888;48.606;9.630;2022-08-04T09:13:07;32.30;99.90
19496;DHT22;9888;48.606;9.630;2022-08-04T09:16:03;32.50;99.90
19496;DHT22;9888;48.606;9.630;2022-08-04T09:21:33;32.90;99.90
19496;DHT22;9888;48.606;9.630;2022-08-04T09:24:19;33.00;99.80
19496;DHT22;9888;48.606;9.630;2022-08-04T09:26:59;33.10;98.40
19496;DHT22;9888;48.606;9.630;2022-08-04T09:42:51;33.50;99.90
19496;DHT22;9888;48.606;9.630;2022-08-04T09:45:30;33.30;99.90
19496;DHT22;9888;48.606;9.630;2022-08-04T09:48:18;33.10;99.90
19496;DHT22;9888;48.606;9.630;2022-08-04T09:50:58;33.10;99.90
19496;DHT22;9888;48.606;9.630;2022-08-04T10:02:46;33.80;99.90
19496;DHT22;9888;48.606;9.630;2022-08-04T10:05:30;33.40;99.90
19496;DHT22;9888;48.606;9.630;2022-08-04T10:26:44;33.80;98.80
19496;DHT22;9888;48.606;9.630;2022-08-04T10:35:25;34.50;98.00
19496;DHT22;9888;48.606;9.630;2022-08-04T10:44:09;35.50;98.40
19496;DHT22;9888;48.606;9.630;2022-08-04T10:47:00;35.90;97.50
19496;DHT22;9888;48.606;9.630;2022-08-04T10:50:00;36.40;97.40
19496;DHT22;9888;48.606;9.630;2022-08-04T10:52:44;36.70;95.10
19496;DHT22;9888;48.606;9.630;2022-08-04T10:55:20;36.80;96.00
19496;DHT22;9888;48.606;9.630;2022-08-04T10:58:08;36.70;94.80
19496;DHT22;9888;48.606;9.630;2022-08-04T11:00:42;36.40;91.90
19496;DHT22;9888;48.606;9.630;2022-08-04T11:03:43;36.30;94.20
19496;DHT22;9888;48.606;9.630;2022-08-04T11:06:12;36.60;94.50
19496;DHT22;9888;48.606;9.630;2022-08-04T11:08:45;36.80;93.10
19496;DHT22;9888;48.606;9.630;2022-08-04T11:11:37;36.80;94.30
19496;DHT22;9888;48.606;9.630;2022-08-04T11:14:11;37.10;94.00
19496;DHT22;9888;48.606;9.630;2022-08-04T11:25:46;37.00;93.50
19496;DHT22;9888;48.606;9.630;2022-08-04T11:28:31;37.10;93.40
19496;DHT22;9888;48.606;9.630;2022-08-04T11:31:19;37.20;92.00
19496;DHT22;9888;48.606;9.630;2022-08-04T11:34:04;37.30;91.90
19496;DHT22;9888;48.606;9.630;2022-08-04T11:39:36;36.80;89.70
19496;DHT22;9888;48.606;9.630;2022-08-04T11:42:29;36.00;90.90
19496;DHT22;9888;48.606;9.630;2022-08-04T11:45:07;35.40;90.30
19496;DHT22;9888;48.606;9.630;2022-08-04T11:48:15;34.80;91.40
19496;DHT22;9888;48.606;9.630;2022-08-04T11:50:52;35.20;91.10
19496;DHT22;9888;48.606;9.630;2022-08-04T11:53:26;35.80;88.50
19496;DHT22;9888;48.606;9.630;2022-08-04T11:59:06;38.60;91.70
19496;DHT22;9888;48.606;9.630;2022-08-04T12:05:00;42.10;84.90
19496;DHT22;9888;48.606;9.630;2022-08-04T12:13:34;46.00;74.30
19496;DHT22;9888;48.606;9.630;2022-08-04T12:20:02;47.00;68.60
19496;DHT22;9888;48.606;9.630;2022-08-04T12:22:49;47.10;62.70
19496;DHT22;9888;48.606;9.630;2022-08-04T12:25:43;46.00;63.70
19496;DHT22;9888;48.606;9.630;2022-08-04T12:28:28;47.40;66.80
19496;DHT22;9888;48.606;9.630;2022-08-04T12:31:30;47.90;64.00
19496;DHT22;9888;48.606;9.630;2022-08-04T12:34:07;46.30;65.20
19496;DHT22;9888;48.606;9.630;2022-08-04T12:39:18;44.30;62.30
19496;DHT22;9888;48.606;9.630;2022-08-04T12:42:01;45.90;63.30
19496;DHT22;9888;48.606;9.630;2022-08-04T12:44:37;46.40;61.80
19496;DHT22;9888;48.606;9.630;2022-08-04T12:47:10;47.30;61.40
19496;DHT22;9888;48.606;9.630;2022-08-04T12:49:47;47.40;59.10
19496;DHT22;9888;48.606;9.630;2022-08-04T12:52:21;48.10;59.30
19496;DHT22;9888;48.606;9.630;2022-08-04T12:54:53;47.70;58.20
19496;DHT22;9888;48.606;9.630;2022-08-04T12:57:22;48.10;54.90
19496;DHT22;9888;48.606;9.630;2022-08-04T12:59:51;47.40;55.50
19496;DHT22;9888;48.606;9.630;2022-08-04T13:02:38;47.00;58.90
19496;DHT22;9888;48.606;9.630;2022-08-04T13:05:11;47.60;59.70
19496;DHT22;9888;48.606;9.630;2022-08-04T13:07:45;47.90;58.70
19496;DHT22;9888;48.606;9.630;2022-08-04T13:10:22;47.60;58.30
19496;DHT22;9888;48.606;9.630;2022-08-04T13:12:57;48.80;59.90
19496;DHT22;9888;48.606;9.630;2022-08-04T13:15:27;49.00;56.30
19496;DHT22;9888;48.606;9.630;2022-08-04T13:18:01;48.60;56.60
19496;DHT22;9888;48.606;9.630;2022-08-04T13:20:31;48.70;53.70
19496;DHT22;9888;48.606;9.630;2022-08-04T13:23:12;49.10;53.90
19496;DHT22;9888;48.606;9.630;2022-08-04T13:29:19;49.40;54.60
19496;DHT22;9888;48.606;9.630;2022-08-04T13:31:57;50.30;54.30
19496;DHT22;9888;48.606;9.630;2022-08-04T13:34:27;49.50;54.20
19496;DHT22;9888;48.606;9.630;2022-08-04T15:41:07;49.60;51.20
19496;DHT22;9888;48.606;9.630;2022-08-04T15:49:27;48.40;50.50
19496;DHT22;9888;48.606;9.630;2022-08-04T15:52:10;48.50;51.80
19496;DHT22;9888;48.606;9.630;2022-08-04T15:54:38;48.20;49.50
19496;DHT22;9888;48.606;9.630;2022-08-04T15:57:10;48.10;50.20
19496;DHT22;9888;48.606;9.630;2022-08-04T16:00:04;47.90;52.70
19496;DHT22;9888;48.606;9.630;2022-08-04T16:02:35;47.80;51.00
19496;DHT22;9888;48.606;9.630;2022-08-04T16:10:34;47.90;50.70
19496;DHT22;9888;48.606;9.630;2022-08-04T16:13:11;47.60;51.10
19496;DHT22;9888;48.606;9.630;2022-08-04T16:20:57;44.70;53.60
19496;DHT22;9888;48.606;9.630;2022-08-04T16:23:46;43.80;54.40
19496;DHT22;9888;48.606;9.630;2022-08-04T16:32:09;44.80;55.70
19496;DHT22;9888;48.606;9.630;2022-08-04T16:34:58;44.90;54.40
19496;DHT22;9888;48.606;9.630;2022-08-04T16:37:36;45.10;55.30
19496;DHT22;9888;48.606;9.630;2022-08-04T16:40:33;45.40;53.40
19496;DHT22;9888;48.606;9.630;2022-08-04T16:43:16;45.80;52.20
19496;DHT22;9888;48.606;9.630;2022-08-04T16:45:51;45.40;55.30
19496;DHT22;9888;48.606;9.630;2022-08-04T16:48:26;43.80;56.50
19496;DHT22;9888;48.606;9.630;2022-08-04T16:51:06;42.20;58.60
19496;DHT22;9888;48.606;9.630;2022-08-04T16:53:41;41.20;60.40
19496;DHT22;9888;48.606;9.630;2022-08-04T16:56:11;40.70;61.00
19496;DHT22;9888;48.606;9.630;2022-08-04T16:58:42;40.40;62.40
19496;DHT22;9888;48.606;9.630;2022-08-04T17:01:20;40.50;60.50
19496;DHT22;9888;48.606;9.630;2022-08-04T17:03:51;40.20;62.70
19496;DHT22;9888;48.606;9.630;2022-08-04T17:06:20;39.60;63.10
19496;DHT22;9888;48.606;9.630;2022-08-04T17:08:49;39.30;66.20
19496;DHT22;9888;48.606;9.630;2022-08-04T17:11:16;38.90;66.10
19496;DHT22;9888;48.606;9.630;2022-08-04T17:13:46;38.90;66.40
19496;DHT22;9888;48.606;9.630;2022-08-04T17:16:16;38.70;65.50
19496;DHT22;9888;48.606;9.630;2022-08-04T17:18:51;38.10;66.90
19496;DHT22;9888;48.606;9.630;2022-08-04T17:21:24;37.40;72.00
19496;DHT22;9888;48.606;9.630;2022-08-04T17:27:16;36.40;73.20
19496;DHT22;9888;48.606;9.630;2022-08-04T17:29:46;36.60;71.60
19496;DHT22;9888;48.606;9.630;2022-08-04T17:32:17;36.50;73.20
19496;DHT22;9888;48.606;9.630;2022-08-04T17:34:55;36.30;74.90
19496;DHT22;9888;48.606;9.630;2022-08-04T17:37:25;35.90;74.00
19496;DHT22;9888;48.606;9.630;2022-08-04T17:40:08;35.70;75.80
19496;DHT22;9888;48.606;9.630;2022-08-04T17:43:06;35.30;78.10
19496;DHT22;9888;48.606;9.630;2022-08-04T17:45:34;35.20;77.30
19496;DHT22;9888;48.606;9.630;2022-08-04T17:54:32;32.10;85.50
19496;DHT22;9888;48.606;9.630;2022-08-04T18:27:21;26.30;99.90
19496;DHT22;9888;48.606;9.630;2022-08-04T18:29:50;25.90;99.90
19496;DHT22;9888;48.606;9.630;2022-08-04T18:32:20;25.70;99.90
19496;DHT22;9888;48.606;9.630;2022-08-04T18:34:51;25.50;99.90
19496;DHT22;9888;48.606;9.630;2022-08-04T18:37:21;25.40;99.90
19496;DHT22;9888;48.606;9.630;2022-08-04T18:39:51;25.10;99.90
19496;DHT22;9888;48.606;9.630;2022-08-04T18:42:22;24.90;99.90
19496;DHT22;9888;48.606;9.630;2022-08-04T22:14:57;19.20;99.90
19496;DHT22;9888;48.606;9.630;2022-08-04T22:20:51;19.10;99.90
19496;DHT22;9888;48.606;9.630;2022-08-04T22:23:25;19.00;99.90
19496;DHT22;9888;48.606;9.630;2022-08-04T22:25:54;19.00;99.90
19496;DHT22;9888;48.606;9.630;2022-08-04T22:28:22;18.90;99.90
19496;DHT22;9888;48.606;9.630;2022-08-04T22:30:51;18.90;99.90
19496;DHT22;9888;48.606;9.630;2022-08-04T22:33:21;18.80;99.90
19496;DHT22;9888;48.606;9.630;2022-08-04T22:35:50;18.70;99.90
19496;DHT22;9888;48.606;9.630;2022-08-04T22:38:28;18.60;99.90
19496;DHT22;9888;48.606;9.630;2022-08-04T22:41:12;18.60;99.90
19496;DHT22;9888;48.606;9.630;2022-08-04T22:44:02;18.60;99.90
19496;DHT22;9888;48.606;9.630;2022-08-04T22:50:02;18.60;99.90
19496;DHT22;9888;48.606;9.630;2022-08-04T22:52:39;18.50;99.90
19496;DHT22;9888;48.606;9.630;2022-08-04T22:55:11;18.50;99.90
19496;DHT22;9888;48.606;9.630;2022-08-04T22:57:43;18.50;99.90
19496;DHT22;9888;48.606;9.630;2022-08-04T23:00:17;18.40;99.90
19496;DHT22;9888;48.606;9.630;2022-08-04T23:02:49;18.40;99.90
19496;DHT22;9888;48.606;9.630;2022-08-04T23:05:36;18.30;99.90
19496;DHT22;9888;48.606;9.630;2022-08-04T23:08:09;18.20;99.90
19496;DHT22;9888;48.606;9.630;2022-08-04T23:10:39;18.20;99.90
19496;DHT22;9888;48.606;9.630;2022-08-04T23:13:12;18.20;99.90
19496;DHT22;9888;48.606;9.630;2022-08-04T23:22:29;18.10;99.90
19496;DHT22;9888;48.606;9.630;2022-08-04T23:25:23;18.10;99.90
19496;DHT22;9888;48.606;9.630;2022-08-04T23:28:21;18.10;99.90
19496;DHT22;9888;48.606;9.630;2022-08-04T23:30:57;18.00;99.90
19496;DHT22;9888;48.606;9.630;2022-08-04T23:41:05;18.00;99.90
19496;DHT22;9888;48.606;9.630;2022-08-04T23:53:39;18.10;99.90
19496;DHT22;9888;48.606;9.630;2022-08-04T23:56:45;18.20;99.90
19496;DHT22;9888;48.606;9.630;2022-08-04T23:59:14;18.20;99.90
